createdAt,value
2018-12-07T00:18:39.339Z,107.58
2018-12-07T00:38:31.552Z,94.40
2018-12-07T00:41:01.119Z,95.80
2018-12-07T00:43:30.767Z,88.10
2018-12-07T00:46:00.277Z,94.45
2018-12-07T00:48:30.041Z,86.12
2018-12-07T00:50:59.720Z,84.00
2018-12-07T00:53:29.322Z,81.90
2018-12-07T00:55:58.973Z,79.45
2018-12-07T00:58:28.809Z,83.60
2018-12-07T01:00:58.443Z,80.80
2018-12-07T01:03:28.059Z,81.63
2018-12-07T01:05:57.523Z,82.60
2018-12-07T01:08:27.398Z,80.22
2018-12-07T01:10:57.188Z,79.27
2018-12-07T01:13:26.580Z,80.75
2018-12-07T01:15:56.423Z,85.55
2018-12-07T01:18:25.894Z,83.15
2018-12-07T01:20:55.520Z,84.52
2018-12-07T01:23:25.361Z,82.50
2018-12-07T01:25:54.824Z,88.50
2018-12-07T01:28:24.655Z,84.85
2018-12-07T01:30:54.575Z,101.30
2018-12-07T01:33:24.300Z,105.07
2018-12-07T01:35:53.994Z,110.55
2018-12-07T01:38:24.269Z,107.85
2018-12-07T01:40:53.728Z,119.85
2018-12-07T01:43:23.217Z,153.65
2018-12-07T01:45:53.064Z,144.20
2018-12-07T01:48:22.554Z,127.58
2018-12-07T01:50:52.134Z,126.67
2018-12-07T01:53:21.857Z,132.05
2018-12-07T02:13:13.411Z,129.70
2018-12-07T02:15:43.045Z,111.90
2018-12-07T02:18:12.734Z,114.80
2018-12-07T02:38:04.353Z,117.37
2018-12-07T02:40:34.089Z,116.55
2018-12-07T03:00:25.438Z,103.30
2018-12-07T03:02:55.131Z,100.10
2018-12-07T03:05:25.004Z,93.15
2018-12-07T03:07:54.876Z,108.67
2018-12-07T03:27:46.401Z,193.32
2018-12-07T03:30:16.016Z,191.05
2018-12-07T03:32:45.702Z,164.43
2018-12-07T03:52:36.643Z,226.73
2018-12-07T03:55:05.931Z,223.70
2018-12-07T04:20:46.072Z,201.15
2018-12-07T04:23:15.769Z,187.70
2018-12-07T04:25:45.492Z,199.42
2018-12-07T04:45:38.813Z,196.98
2018-12-07T04:48:08.531Z,205.52
2018-12-07T04:50:38.296Z,200.07
2018-12-07T04:53:07.862Z,192.07
2018-12-07T04:55:37.370Z,212.35
2018-12-07T04:58:06.904Z,196.25
2018-12-07T05:00:37.021Z,189.30
2018-12-07T05:03:06.636Z,192.18
2018-12-07T05:05:36.240Z,207.15
2018-12-07T05:08:05.964Z,210.95
2018-12-07T05:10:35.756Z,202.10
2018-12-07T05:13:05.153Z,183.78
2018-12-07T05:15:34.987Z,187.22
2018-12-07T05:18:04.389Z,190.47
2018-12-07T05:20:33.977Z,189.77
2018-12-07T05:23:03.823Z,195.95
2018-12-07T05:25:34.320Z,197.07
2018-12-07T05:28:03.980Z,264.27
2018-12-07T05:47:56.249Z,224.25
2018-12-07T05:50:25.868Z,224.10
2018-12-07T05:52:55.172Z,298.02
2018-12-07T05:55:25.179Z,233.75
2018-12-07T05:57:54.816Z,253.55
2018-12-07T06:00:24.555Z,258.07
2018-12-07T06:02:54.268Z,266.98
2018-12-07T06:05:23.813Z,232.27
2018-12-07T06:07:53.562Z,227.13
2018-12-07T06:10:23.399Z,213.80
2018-12-07T06:12:52.969Z,198.75
2018-12-07T06:15:22.737Z,189.97
2018-12-07T06:17:52.247Z,196.02
2018-12-07T06:20:21.780Z,192.53
2018-12-07T06:22:51.453Z,178.15
2018-12-07T06:25:21.309Z,180.20
2018-12-07T06:27:50.985Z,188.12
2018-12-07T06:30:20.744Z,178.02
2018-12-07T06:32:50.692Z,171.25
2018-12-07T06:52:41.837Z,188.45
2018-12-07T06:55:11.702Z,197.93
2018-12-07T06:57:41.187Z,182.05
2018-12-07T07:00:11.016Z,199.20
2018-12-07T07:02:41.133Z,183.12
2018-12-07T07:22:32.660Z,273.35
2018-12-07T07:25:08.979Z,242.85
2018-12-07T07:27:38.635Z,222.55
2018-12-07T07:30:09.740Z,194.15
2018-12-07T07:32:39.287Z,151.47
2018-12-07T07:35:09.112Z,157.75
2018-12-07T07:37:39.585Z,144.90
2018-12-07T07:40:09.192Z,150.20
2018-12-07T07:42:38.848Z,183.10
2018-12-07T07:45:09.041Z,184.15
2018-12-07T07:47:38.556Z,195.28
2018-12-07T08:21:58.246Z,98.40
2018-12-07T08:24:28.219Z,105.70
2018-12-07T08:26:57.899Z,103.72
2018-12-07T08:29:27.622Z,108.40
2018-12-07T08:31:57.445Z,112.15
2018-12-07T08:51:49.735Z,115.80
2018-12-07T08:54:19.421Z,124.60
2018-12-07T08:56:48.829Z,124.22
2018-12-07T08:59:18.560Z,139.12
2018-12-07T09:01:48.378Z,127.05
2018-12-07T09:04:17.935Z,125.97
2018-12-07T09:06:47.588Z,124.58
2018-12-07T09:09:17.404Z,126.30
2018-12-07T09:11:47.287Z,123.55
2018-12-07T09:14:16.995Z,119.77
2018-12-07T09:16:47.139Z,109.15
2018-12-07T09:19:16.719Z,102.80
2018-12-07T09:21:46.352Z,108.27
2018-12-07T09:24:16.069Z,110.42
2018-12-07T09:26:45.869Z,109.37
2018-12-07T09:29:15.605Z,113.90
2018-12-07T09:31:45.540Z,120.67
2018-12-07T09:34:14.993Z,118.28
2018-12-07T09:36:44.810Z,124.12
2018-12-07T09:39:14.928Z,125.65
2018-12-07T09:41:44.804Z,120.53
2018-12-07T09:44:14.578Z,94.10
2018-12-07T09:46:44.682Z,83.78
2018-12-07T09:49:14.249Z,87.57
2018-12-07T09:51:43.921Z,65.75
2018-12-07T09:54:14.032Z,61.65
2018-12-07T09:56:43.632Z,64.00
2018-12-07T09:59:13.427Z,68.17
2018-12-07T10:01:44.204Z,61.42
2018-12-07T10:04:13.962Z,51.92
2018-12-07T10:06:44.088Z,51.90
2018-12-07T10:09:14.021Z,66.60
2018-12-07T10:11:43.605Z,61.28
2018-12-07T10:14:13.517Z,62.00
2018-12-07T10:34:05.897Z,77.53
2018-12-07T10:36:35.630Z,73.80
2018-12-07T10:39:06.058Z,80.75
2018-12-07T10:58:58.161Z,92.92
2018-12-07T11:01:32.878Z,81.75
2018-12-07T11:04:07.694Z,84.75
2018-12-07T11:24:04.245Z,88.35
2018-12-07T11:26:39.246Z,100.33
2018-12-07T11:29:13.972Z,100.12
2018-12-07T11:31:48.944Z,101.78
2018-12-07T11:34:21.784Z,95.07
2018-12-07T11:54:15.118Z,87.57
2018-12-07T11:56:44.962Z,88.10
2018-12-07T11:59:14.659Z,88.03
2018-12-07T12:01:45.115Z,95.70
2018-12-07T12:04:14.423Z,87.73
2018-12-07T12:06:44.046Z,84.37
2018-12-07T12:26:37.634Z,95.37
2018-12-07T12:29:07.136Z,91.37
2018-12-07T12:31:37.095Z,94.63
2018-12-07T12:34:07.396Z,93.63
2018-12-07T12:36:37.145Z,90.20
2018-12-07T12:39:08.393Z,91.60
2018-12-07T12:41:37.919Z,110.97
2018-12-07T12:44:07.520Z,106.07
2018-12-07T12:46:37.587Z,105.77
2018-12-07T12:49:07.335Z,90.23
2018-12-07T12:51:37.080Z,91.35
2018-12-07T12:54:06.995Z,96.15
2018-12-07T12:56:37.042Z,89.17
2018-12-07T12:59:06.658Z,106.92
2018-12-07T13:01:36.556Z,94.95
2018-12-07T13:04:05.972Z,99.52
2018-12-07T13:06:35.552Z,108.37
2018-12-07T13:26:26.776Z,77.90
2018-12-07T13:28:56.284Z,70.32
2018-12-07T13:31:25.972Z,74.20
2018-12-07T13:51:17.102Z,72.58
2018-12-07T13:53:46.909Z,70.80
2018-12-07T14:13:38.974Z,79.65
2018-12-07T14:16:08.599Z,90.05
2018-12-07T14:18:38.268Z,90.47
2018-12-07T14:21:07.761Z,88.12
2018-12-07T14:23:37.486Z,87.82
2018-12-07T14:26:07.132Z,321.82
2018-12-07T14:28:37.710Z,91.17
2018-12-07T14:31:07.290Z,99.35
2018-12-07T14:33:36.808Z,95.35
2018-12-07T14:36:06.295Z,100.00
2018-12-07T14:38:36.082Z,102.70
2018-12-07T14:41:05.485Z,98.15
2018-12-07T14:43:35.221Z,102.87
2018-12-07T14:46:04.919Z,104.43
2018-12-07T14:48:34.532Z,105.27
2018-12-07T14:51:03.839Z,106.87
2018-12-07T15:10:56.311Z,96.92
2018-12-07T15:13:25.719Z,90.40
2018-12-07T15:15:55.222Z,80.22
2018-12-07T15:18:25.222Z,86.25
2018-12-07T15:38:17.270Z,72.32
2018-12-07T15:55:16.515Z,71.85
2018-12-07T15:57:46.639Z,73.17
2018-12-07T16:00:16.799Z,85.67
2018-12-07T16:02:46.795Z,78.85
2018-12-07T16:05:16.257Z,79.50
2018-12-07T16:07:45.982Z,78.00
2018-12-07T16:10:15.758Z,76.42
2018-12-07T16:12:45.566Z,75.08
2018-12-07T16:15:15.357Z,107.80
2018-12-07T16:17:45.038Z,104.12
2018-12-07T16:20:17.616Z,128.68
2018-12-07T16:22:47.275Z,115.25
2018-12-07T16:25:16.727Z,119.42
2018-12-07T16:27:46.659Z,104.32
2018-12-07T16:30:16.503Z,106.55
2018-12-07T16:32:46.169Z,110.30
2018-12-07T16:35:15.919Z,108.83
2018-12-07T16:37:45.563Z,113.10
2018-12-07T16:40:15.090Z,98.00
2018-12-07T16:42:45.494Z,95.50
2018-12-07T16:45:14.802Z,87.10
2018-12-07T16:47:44.448Z,79.40
2018-12-07T16:50:14.389Z,82.35
2018-12-07T16:52:44.140Z,92.22
2018-12-07T16:55:14.035Z,88.67
2018-12-07T16:57:43.676Z,94.50
2018-12-07T17:00:13.155Z,111.47
2018-12-07T17:02:43.090Z,104.80
2018-12-07T17:05:13.127Z,91.95
2018-12-07T17:07:42.537Z,90.10
2018-12-07T17:10:12.309Z,96.28
2018-12-07T17:12:42.027Z,76.95
2018-12-07T17:15:11.359Z,86.12
2018-12-07T17:17:40.883Z,166.47
2018-12-07T17:20:10.529Z,99.13
2018-12-07T17:22:40.095Z,112.97
2018-12-07T17:25:09.760Z,232.45
2018-12-07T17:27:39.419Z,282.48
2018-12-07T17:30:09.309Z,140.43
2018-12-07T17:32:38.940Z,1610.78
2018-12-07T17:35:08.676Z,1253.35
2018-12-07T17:37:38.372Z,839.35
2018-12-07T17:40:08.165Z,239.72
2018-12-07T17:42:38.161Z,167.40
2018-12-07T17:45:07.895Z,136.22
2018-12-07T17:47:37.520Z,137.85
2018-12-07T17:50:07.790Z,250.68
2018-12-07T17:52:37.348Z,231.23
2018-12-07T17:55:13.982Z,340.25
2018-12-07T17:57:43.385Z,399.20
2018-12-07T18:00:13.433Z,405.60
2018-12-07T18:02:43.535Z,416.15
2018-12-07T18:05:13.358Z,430.25
2018-12-07T18:07:42.802Z,417.63
2018-12-07T18:10:12.529Z,411.98
2018-12-07T18:12:42.115Z,421.45
2018-12-07T18:15:12.163Z,419.82
2018-12-07T18:17:41.935Z,423.82
2018-12-07T18:20:11.631Z,418.45
2018-12-07T18:22:41.287Z,409.52
2018-12-07T18:25:11.631Z,400.05
2018-12-07T18:27:40.969Z,405.30
2018-12-07T18:30:10.450Z,378.40
2018-12-07T18:32:40.452Z,393.67
2018-12-07T18:35:09.933Z,400.27
2018-12-07T18:37:39.388Z,393.05
2018-12-07T18:40:15.657Z,418.75
2018-12-07T18:42:45.971Z,425.87
2018-12-07T18:45:15.570Z,421.20
2018-12-07T18:47:45.579Z,418.93
2018-12-07T18:50:14.932Z,402.52
2018-12-07T18:52:44.768Z,387.98
2018-12-07T18:55:14.974Z,379.73
2018-12-07T18:57:44.983Z,390.12
2018-12-07T19:00:14.276Z,362.48
2018-12-07T19:02:45.367Z,361.87
2018-12-07T19:05:14.981Z,360.32
2018-12-07T19:07:44.873Z,298.10
2018-12-07T19:10:14.688Z,295.50
2018-12-07T19:12:44.392Z,288.87
2018-12-07T19:15:14.387Z,290.92
2018-12-07T19:17:44.104Z,279.30
2018-12-07T19:20:13.585Z,267.65
2018-12-07T19:22:43.107Z,243.35
2018-12-07T19:25:13.048Z,228.27
2018-12-07T19:27:42.592Z,222.82
2018-12-07T19:30:15.379Z,281.05
2018-12-07T19:32:44.899Z,408.98
2018-12-07T19:35:14.978Z,311.15
2018-12-07T19:37:46.211Z,300.40
2018-12-07T19:40:15.910Z,257.10
2018-12-07T19:42:47.573Z,356.98
2018-12-07T19:45:18.807Z,486.55
2018-12-07T19:47:49.428Z,382.57
2018-12-07T19:50:20.508Z,318.60
2018-12-07T19:52:50.474Z,283.70
2018-12-07T19:55:21.067Z,320.07
2018-12-07T19:57:51.314Z,308.40
2018-12-07T20:00:25.093Z,262.90
2018-12-07T20:02:55.672Z,252.55
2018-12-07T20:05:26.290Z,236.22
2018-12-07T20:07:56.203Z,252.50
2018-12-07T20:10:29.917Z,265.27
2018-12-07T20:13:08.080Z,259.05
2018-12-07T20:15:37.485Z,249.62
2018-12-07T20:18:08.137Z,261.57
2018-12-07T20:20:38.672Z,258.63
2018-12-07T20:23:08.789Z,261.68
2018-12-07T20:25:39.826Z,284.10
2018-12-07T20:28:10.043Z,285.98
2018-12-07T20:30:40.016Z,272.10
2018-12-07T20:33:11.009Z,261.85
2018-12-07T20:35:42.223Z,242.15
2018-12-07T20:38:14.156Z,239.08
2018-12-07T20:40:44.764Z,256.20
2018-12-07T20:43:17.912Z,288.52
2018-12-07T20:45:50.106Z,283.47
2018-12-07T20:48:21.989Z,735.33
2018-12-07T20:50:52.891Z,264.50
2018-12-07T20:53:24.900Z,285.20
2018-12-07T20:55:58.309Z,239.02
2018-12-07T20:58:35.188Z,212.12
2018-12-07T21:01:05.268Z,215.52
2018-12-07T21:04:42.601Z,213.60
2018-12-07T21:07:43.086Z,221.75
2018-12-07T21:10:34.772Z,226.67
2018-12-07T21:13:22.378Z,225.00
2018-12-07T21:15:52.304Z,238.95
2018-12-07T21:18:21.985Z,266.23
2018-12-07T21:20:52.502Z,265.23
2018-12-07T21:23:22.263Z,324.55
2018-12-07T21:25:53.388Z,398.98
2018-12-07T21:28:23.950Z,418.60
2018-12-07T21:35:00.666Z,491.70
2018-12-07T21:37:30.457Z,513.10
2018-12-07T21:40:12.012Z,524.40
2018-12-07T21:42:41.565Z,491.82
2018-12-07T21:45:11.467Z,499.90
2018-12-07T21:48:14.306Z,490.70
2018-12-07T21:50:46.342Z,502.93
2018-12-07T21:53:16.810Z,496.20
2018-12-07T21:55:46.771Z,506.25
2018-12-07T21:58:16.319Z,507.73
2018-12-07T22:00:46.315Z,493.02
2018-12-07T22:03:15.917Z,469.15
2018-12-07T22:05:45.545Z,463.98
2018-12-07T22:08:15.282Z,472.33
2018-12-07T22:10:45.000Z,463.63
2018-12-07T22:13:14.950Z,465.05
2018-12-07T22:15:44.811Z,460.70
2018-12-07T22:18:14.515Z,489.65
2018-12-07T22:20:43.904Z,540.52
2018-12-07T22:23:14.274Z,576.65
2018-12-07T22:25:43.664Z,557.23
2018-12-07T22:28:13.342Z,630.75
2018-12-07T22:30:43.585Z,560.25
2018-12-07T22:33:13.209Z,602.35
2018-12-07T22:35:43.198Z,567.95
2018-12-07T22:38:13.398Z,557.47
2018-12-07T22:40:43.174Z,548.10
2018-12-07T22:43:12.791Z,532.33
2018-12-07T22:45:43.123Z,482.62
2018-12-07T22:48:12.660Z,549.83
2018-12-07T22:50:42.391Z,511.25
2018-12-07T22:53:13.230Z,513.42
2018-12-07T22:55:42.999Z,487.27
2018-12-07T22:58:12.524Z,485.13
2018-12-07T23:00:44.359Z,493.82
2018-12-07T23:03:14.065Z,499.90
2018-12-07T23:05:43.652Z,458.83
2018-12-07T23:08:13.441Z,478.52
2018-12-07T23:10:42.945Z,453.88
2018-12-07T23:13:12.443Z,439.52
2018-12-07T23:15:42.292Z,427.13
2018-12-07T23:18:11.816Z,426.10
2018-12-07T23:20:41.543Z,415.40
2018-12-07T23:23:11.282Z,325.87
2018-12-07T23:25:40.929Z,335.40
2018-12-07T23:28:10.495Z,312.68
2018-12-07T23:30:40.451Z,322.37
2018-12-07T23:33:10.064Z,320.88
2018-12-07T23:35:39.658Z,297.55
2018-12-07T23:38:09.589Z,309.15
2018-12-07T23:40:39.159Z,335.65
2018-12-07T23:43:10.941Z,309.62
2018-12-07T23:45:40.698Z,297.75
2018-12-07T23:48:10.659Z,288.98
2018-12-07T23:50:40.805Z,255.55
2018-12-07T23:53:10.422Z,239.45
2018-12-07T23:55:40.196Z,254.70
2018-12-07T23:58:10.337Z,229.60
